Time;durP1;ratioP1;P1;durP2;ratioP2;P2;SDS_P1;SDS_P2;PMS_P1;PMS_P2;Temp;Humidity;BMP_temperature;BMP_pressure;BME280_temperature;BME280_humidity;BME280_pressure;Samples;Min_cycle;Max_cycle;Signal;HPM_P1;HPM_P2
2022/05/20 00:00:52;;;;;;;3.28;1.63;;;;;;;17.47;100.00;96964.88;10417877;28;20188;-75
2022/05/20 00:05:53;;;;;;;3.47;1.52;;;;;;;17.50;100.00;96974.25;10418305;28;20193;-75
2022/05/20 00:10:54;;;;;;;3.88;1.40;;;;;;;17.40;100.00;96970.13;10400156;28;20243;-75
2022/05/20 00:15:55;;;;;;;1.83;1.52;;;;;;;17.45;100.00;96972.19;10417468;28;20616;-75
2022/05/20 00:20:56;;;;;;;2.17;1.52;;;;;;;17.37;100.00;96986.41;10399831;28;20204;-75
2022/05/20 00:25:57;;;;;;;2.25;1.45;;;;;;;17.36;100.00;96973.34;10417017;28;20184;-75
2022/05/20 00:31:05;;;;;;;2.05;1.45;;;;;;;17.37;100.00;96981.09;10417051;28;20546;-75
2022/05/20 00:36:05;;;;;;;2.10;1.30;;;;;;;17.37;98.18;96982.94;10416513;28;20595;-74
2022/05/20 00:41:07;;;;;;;1.73;1.40;;;;;;;17.45;95.94;96983.59;10416802;28;20184;-75
2022/05/20 00:46:10;;;;;;;1.83;1.30;;;;;;;17.50;94.91;96990.16;10415734;28;20563;-75
2022/05/20 00:51:20;;;;;;;1.98;1.10;;;;;;;17.43;93.48;96974.22;10416559;28;20200;-75
2022/05/20 00:56:24;;;;;;;2.00;1.38;;;;;;;17.41;93.36;96981.53;10381486;28;20228;-75
2022/05/20 01:01:26;;;;;;;2.25;1.52;;;;;;;17.40;93.33;96990.50;10397653;28;20205;-75
2022/05/20 01:06:26;;;;;;;3.17;1.30;;;;;;;17.37;92.94;96989.06;10397487;28;20327;-75
2022/05/20 01:11:27;;;;;;;1.63;1.27;;;;;;;17.32;92.35;96991.47;10415361;28;20180;-75
2022/05/20 01:16:28;;;;;;;1.50;1.40;;;;;;;17.29;91.68;96999.81;10397020;28;20224;-75
2022/05/20 01:21:28;;;;;;;3.60;1.50;;;;;;;17.46;88.71;96995.84;10415114;28;20207;-74
2022/05/20 01:26:29;;;;;;;3.80;1.40;;;;;;;17.31;90.07;97012.84;10414671;28;20544;-76
2022/05/20 01:31:29;;;;;;;1.55;1.20;;;;;;;17.03;91.52;97022.38;10414517;28;20596;-75
2022/05/20 01:36:29;;;;;;;2.60;1.40;;;;;;;17.06;90.34;97027.31;10414323;28;20290;-75
2022/05/20 01:41:39;;;;;;;1.30;1.20;;;;;;;17.03;90.52;97026.84;10414399;28;20208;-75
2022/05/20 01:46:53;;;;;;;2.08;1.15;;;;;;;16.78;92.86;97040.41;10413378;28;20292;-75
2022/05/20 01:52:21;;;;;;;2.35;1.33;;;;;;;16.76;92.56;97050.38;10396097;28;20216;-75
2022/05/20 01:57:24;;;;;;;3.40;1.45;;;;;;;16.80;91.58;97045.53;10378215;28;20240;-75
2022/05/20 02:02:28;;;;;;;1.40;1.27;;;;;;;16.75;91.58;97040.78;10395462;28;20199;-74
2022/05/20 02:07:31;;;;;;;1.33;1.23;;;;;;;16.45;94.79;97047.97;10395475;28;20201;-75
2022/05/20 02:12:36;;;;;;;3.35;1.30;;;;;;;16.35;97.21;97056.22;10412817;28;20192;-75
2022/05/20 02:17:38;;;;;;;1.42;1.33;;;;;;;16.48;94.52;97052.94;10379034;28;20284;-75
2022/05/20 02:22:43;;;;;;;2.08;1.20;;;;;;;16.28;97.69;97058.78;10394878;28;20185;-74
2022/05/20 02:27:47;;;;;;;2.25;1.48;;;;;;;16.24;99.27;97062.78;10394797;28;20200;-75
2022/05/20 02:32:52;;;;;;;1.38;1.27;;;;;;;16.00;100.00;97074.44;10394205;28;20354;-75
2022/05/20 02:37:53;;;;;;;1.80;1.58;;;;;;;16.04;100.00;97081.03;10394425;28;20228;-75
2022/05/20 02:42:53;;;;;;;1.70;1.50;;;;;;;16.13;100.00;97077.28;10411407;28;20267;-74
2022/05/20 02:47:53;;;;;;;5.75;1.80;;;;;;;16.15;100.00;97085.03;10411530;28;20268;-75
2022/05/20 02:52:54;;;;;;;1.85;1.48;;;;;;;16.24;100.00;97081.28;10411525;28;20217;-75
2022/05/20 02:57:54;;;;;;;2.88;1.88;;;;;;;16.09;100.00;97083.94;10393148;28;20887;-75
2022/05/20 03:08:14;;;;;;;4.82;1.92;;;;;;;16.08;100.00;97092.03;10326388;28;20182;-75
2022/05/20 03:13:16;;;;;;;2.35;1.52;;;;;;;15.92;100.00;97093.84;10324531;28;20597;-74
2022/05/20 03:18:17;;;;;;;2.55;1.65;;;;;;;15.72;100.00;97101.44;10325377;28;20593;-75
2022/05/20 03:23:17;;;;;;;7.00;1.77;;;;;;;15.41;100.00;97107.66;10325936;28;20213;-75
2022/05/20 03:28:17;;;;;;;1.60;1.33;;;;;;;15.06;100.00;97120.44;10325305;28;20284;-75
2022/05/20 03:33:18;;;;;;;2.33;1.88;;;;;;;15.16;100.00;97121.03;10325347;28;20218;-75
2022/05/20 03:38:18;;;;;;;2.60;1.67;;;;;;;15.07;100.00;97124.72;10325684;28;20201;-75
2022/05/20 03:43:18;;;;;;;2.83;2.30;;;;;;;15.00;100.00;97129.06;10325140;28;20268;-75
2022/05/20 03:48:19;;;;;;;1.60;1.50;;;;;;;14.78;100.00;97134.13;10325387;28;20247;-75
2022/05/20 03:53:20;;;;;;;2.38;2.17;;;;;;;14.78;100.00;97128.84;10307491;28;20244;-75
2022/05/20 03:58:20;;;;;;;1.70;1.60;;;;;;;14.80;100.00;97131.31;10324920;28;20220;-75
2022/05/20 04:03:21;;;;;;;3.70;2.22;;;;;;;15.12;100.00;97135.56;10327358;28;20194;-75
2022/05/20 04:08:21;;;;;;;2.50;2.00;;;;;;;15.33;100.00;97134.13;10328442;28;20190;-74
2022/05/20 04:13:22;;;;;;;7.03;2.22;;;;;;;15.44;100.00;97141.63;10311359;28;20309;-74
2022/05/20 04:18:22;;;;;;;2.90;1.95;;;;;;;15.55;100.00;97145.66;10332010;28;20213;-74
2022/05/20 04:23:22;;;;;;;3.28;1.90;;;;;;;15.82;100.00;97144.31;10334751;28;20197;-74
2022/05/20 04:28:23;;;;;;;4.47;2.00;;;;;;;16.05;100.00;97146.09;10336306;28;20182;-74
2022/05/20 04:33:24;;;;;;;2.47;2.03;;;;;;;16.27;100.00;97136.44;10409285;28;20227;-74
2022/05/20 04:38:25;;;;;;;2.25;2.05;;;;;;;16.50;100.00;97148.75;10417101;28;20602;-75
2022/05/20 04:48:44;;;;;;;3.05;2.10;;;;;;;16.53;100.00;97164.25;10402120;28;20196;-74
2022/05/20 04:59:03;;;;;;;3.47;2.05;;;;;;;16.39;100.00;97185.22;10416843;28;20614;-75
2022/05/20 05:04:04;;;;;;;2.30;2.10;;;;;;;16.71;100.00;97196.44;10416443;28;20276;-75
2022/05/20 05:09:04;;;;;;;4.45;2.33;;;;;;;16.55;100.00;97210.69;10398182;28;20189;-75
2022/05/20 05:14:09;;;;;;;2.40;2.20;;;;;;;16.85;100.00;97208.03;10415718;28;20715;-75
2022/05/20 05:19:10;;;;;;;2.65;2.38;;;;;;;16.34;100.00;97206.09;10415786;28;20196;-75
2022/05/20 05:24:10;;;;;;;2.95;2.28;;;;;;;16.62;100.00;97204.66;10397733;28;20234;-75
2022/05/20 05:29:11;;;;;;;2.95;2.33;;;;;;;17.12;100.00;97211.03;10414646;28;20238;-75
2022/05/20 05:34:11;;;;;;;2.50;2.30;;;;;;;17.22;100.00;97210.75;10415036;28;20224;-75
2022/05/20 05:39:12;;;;;;;4.35;2.65;;;;;;;16.86;100.00;97207.06;10414245;28;20279;-75
2022/05/20 05:44:12;;;;;;;2.88;2.40;;;;;;;17.27;100.00;97203.88;10414907;28;20177;-75
2022/05/20 05:49:13;;;;;;;3.13;2.42;;;;;;;17.78;100.00;97188.91;10411197;28;20188;-76
2022/05/20 05:54:13;;;;;;;7.03;2.70;;;;;;;18.10;100.00;97182.25;10413664;28;20243;-75
2022/05/20 05:59:14;;;;;;;3.08;2.45;;;;;;;17.97;100.00;97182.13;10413905;28;20204;-76
2022/05/20 06:04:14;;;;;;;3.80;2.50;;;;;;;17.57;100.00;97177.28;10396546;28;20196;-75
2022/05/20 06:09:14;;;;;;;2.40;2.20;;;;;;;18.47;100.00;97172.28;10413652;28;20188;-76
2022/05/20 06:14:16;;;;;;;6.95;2.33;;;;;;;19.75;96.55;97168.22;10413596;28;20688;-76
2022/05/20 06:19:16;;;;;;;3.42;2.55;;;;;;;19.52;90.10;97174.72;10413532;28;20238;-76
2022/05/20 06:24:17;;;;;;;2.63;2.20;;;;;;;18.46;100.00;97196.38;10412954;28;20224;-76
2022/05/20 06:29:17;;;;;;;4.47;2.40;;;;;;;19.31;98.14;97193.50;10413580;28;20200;-75
2022/05/20 06:34:18;;;;;;;3.80;2.97;;;;;;;18.89;98.68;97178.44;10412801;28;20262;-75
2022/05/20 06:44:37;;;;;;;3.28;2.83;;;;;;;17.67;100.00;97192.84;10410552;28;20188;-74
2022/05/20 06:49:37;;;;;;;3.00;2.80;;;;;;;18.79;100.00;97170.00;10410569;28;20192;-74
2022/05/20 06:54:37;;;;;;;2.80;2.47;;;;;;;19.90;91.03;97155.56;10411653;28;20601;-75
2022/05/20 06:59:38;;;;;;;4.78;2.80;;;;;;;20.65;82.46;97139.31;10412428;28;20557;-75
2022/05/20 07:04:38;;;;;;;4.00;2.90;;;;;;;20.25;84.84;97154.53;10412561;28;20632;-74
2022/05/20 07:09:39;;;;;;;4.18;2.13;;;;;;;20.14;85.51;97150.66;10411992;28;20875;-75
2022/05/20 07:14:39;;;;;;;3.80;2.75;;;;;;;20.39;82.63;97153.47;10412046;28;20224;-75
2022/05/20 07:19:39;;;;;;;4.80;3.05;;;;;;;20.15;82.57;97152.28;10412132;28;20203;-75
2022/05/20 07:24:40;;;;;;;4.40;2.70;;;;;;;20.71;82.38;97147.50;10411814;28;20188;-75
2022/05/20 07:29:40;;;;;;;4.85;2.72;;;;;;;21.00;81.16;97146.94;10411894;28;20180;-75
2022/05/20 07:34:40;;;;;;;5.78;3.70;;;;;;;20.76;78.55;97140.50;10411744;28;20252;-75
2022/05/20 07:39:41;;;;;;;4.32;2.70;;;;;;;22.18;74.78;97107.34;10411769;28;20235;-75
2022/05/20 07:44:41;;;;;;;3.42;3.00;;;;;;;22.35;74.74;97110.28;10411221;28;20193;-75
2022/05/20 07:49:42;;;;;;;5.25;3.20;;;;;;;22.43;74.08;97088.66;10411090;28;20727;-76
2022/05/20 07:54:44;;;;;;;4.30;3.90;;;;;;;20.96;77.58;97118.28;10399113;28;20565;-75
2022/05/20 07:59:45;;;;;;;5.93;4.57;;;;;;;21.14;77.45;97107.72;10401933;28;20280;-75
2022/05/20 08:05:01;;;;;;;5.13;4.55;;;;;;;21.86;74.32;97080.75;10420281;28;20196;-75
2022/05/20 08:10:05;;;;;;;4.97;3.00;;;;;;;22.23;73.19;97070.13;10428385;28;20188;-75
2022/05/20 08:15:06;;;;;;;6.32;3.40;;;;;;;23.80;65.89;97007.94;10438442;28;20707;-76
2022/05/20 08:20:21;;;;;;;5.28;3.30;;;;;;;22.28;71.02;97074.81;10418811;28;20196;-75
2022/05/20 08:25:24;;;;;;;4.95;3.10;;;;;;;23.56;70.42;97052.59;10419119;28;20552;-76
2022/05/20 08:30:25;;;;;;;3.58;3.28;;;;;;;24.08;67.81;97023.28;10418187;28;20184;-76
2022/05/20 08:35:27;;;;;;;4.18;2.72;;;;;;;25.38;62.55;96977.19;10417550;28;20590;-75
2022/05/20 08:40:30;;;;;;;3.20;2.40;;;;;;;25.07;61.05;96954.44;10417683;28;20195;-76
2022/05/20 08:45:31;;;;;;;3.55;1.70;;;;;;;24.26;60.56;96941.16;10357673;28;20220;-75
2022/05/20 08:50:46;;;;;;;4.50;1.73;;;;;;;24.46;63.52;97007.72;10376220;28;20542;-75
2022/05/20 08:55:46;;;;;;;3.95;2.08;;;;;;;21.98;68.92;97051.53;10358469;28;20228;-75
2022/05/20 09:00:47;;;;;;;3.08;1.50;;;;;;;21.86;71.18;97072.75;10358566;28;20201;-75
2022/05/20 09:05:48;;;;;;;4.60;1.73;;;;;;;22.15;69.73;97061.63;10375842;28;20181;-74
2022/05/20 09:10:51;;;;;;;3.88;2.15;;;;;;;21.82;72.40;97092.94;10375785;28;20702;-75
2022/05/20 09:15:58;;;;;;;2.15;1.95;;;;;;;20.76;77.00;97118.38;10375688;28;20224;-75
2022/05/20 09:20:58;;;;;;;5.00;1.60;;;;;;;22.22;71.55;97044.50;10375056;28;20208;-75
2022/05/20 09:26:07;;;;;;;2.78;1.50;;;;;;;23.61;66.53;97001.88;10375209;28;20705;-75
2022/05/20 09:31:36;;;;;;;3.05;1.83;;;;;;;22.06;73.07;97083.25;10374762;28;20204;-74
2022/05/20 09:37:00;;;;;;;2.28;1.60;;;;;;;23.94;66.12;96990.59;10340853;28;20243;-76
2022/05/20 09:42:09;;;;;;;1.70;1.60;;;;;;;24.57;63.26;96966.66;10374212;28;20208;-75
2022/05/20 09:47:23;;;;;;;4.22;2.10;;;;;;;23.81;66.30;96998.84;10374071;28;20551;-75
2022/05/20 09:52:26;;;;;;;3.03;1.88;;;;;;;22.91;67.84;97009.53;10340179;28;20220;-75
2022/05/20 09:57:50;;;;;;;2.85;1.95;;;;;;;23.96;64.68;96975.09;10356255;28;20233;-76
2022/05/20 10:02:53;;;;;;;3.60;1.98;;;;;;;24.38;64.67;96982.94;10361379;28;20215;-76
2022/05/20 10:08:00;;;;;;;3.15;1.90;;;;;;;24.49;64.10;96975.91;10375678;28;20189;-75
2022/05/20 10:13:02;;;;;;;2.95;2.28;;;;;;;25.03;61.25;96937.19;10374723;28;20193;-75
2022/05/20 10:18:25;;;;;;;5.68;2.33;;;;;;;24.47;63.32;96961.09;10357116;28;20255;-74
2022/05/20 10:23:46;;;;;;;4.65;2.10;;;;;;;25.27;62.08;96941.31;10373783;28;20239;-74
2022/05/20 10:34:36;;;;;;;4.13;2.50;;;;;;;24.19;65.80;96976.91;10359255;28;20765;-75
2022/05/20 10:39:56;;;;;;;2.30;2.10;;;;;;;25.75;60.79;96914.13;10340746;28;20189;-76
2022/05/20 10:50:28;;;;;;;3.08;2.35;;;;;;;24.48;64.32;96914.53;10358284;28;20228;-76
2022/05/20 10:55:58;;;;;;;3.83;2.22;;;;;;;26.11;62.06;96883.16;10372017;28;20232;-76
2022/05/20 11:01:03;;;;;;;3.38;1.73;;;;;;;26.31;60.46;96847.66;10371650;28;20216;-77
2022/05/20 11:06:19;;;;;;;7.40;2.15;;;;;;;27.38;58.79;96829.91;10353982;28;20221;-78
2022/05/20 11:11:41;;;;;;;1.75;1.58;;;;;;;28.57;55.44;96794.09;10359128;28;20662;-77
2022/05/20 11:16:50;;;;;;;3.10;2.13;;;;;;;28.32;55.52;96792.22;10311244;28;20194;-76
2022/05/20 11:22:25;;;;;;;3.13;2.10;;;;;;;27.38;57.00;96792.22;10330097;28;20197;-76
2022/05/20 11:27:37;;;;;;;4.25;2.33;;;;;;;28.86;53.72;96766.59;10314851;28;20224;-76
2022/05/20 11:32:55;;;;;;;2.75;1.90;;;;;;;28.26;54.24;96753.69;10338768;28;20194;-76
2022/05/20 11:38:19;;;;;;;3.72;2.05;;;;;;;28.41;53.77;96734.03;10338903;28;20189;-76
2022/05/20 11:43:50;;;;;;;4.38;2.10;;;;;;;28.15;54.54;96737.78;10338608;28;20238;-75
2022/05/20 11:49:04;;;;;;;3.40;1.92;;;;;;;27.11;57.51;96781.59;10336795;28;20201;-76
2022/05/20 11:54:45;;;;;;;3.00;2.00;;;;;;;28.90;56.26;96791.13;10337950;28;20237;-76
2022/05/20 12:00:08;;;;;;;3.63;2.60;;;;;;;30.15;53.15;96739.81;10332737;28;20252;-76
2022/05/20 12:05:12;;;;;;;3.05;2.10;;;;;;;31.14;50.27;96693.75;10337288;28;20221;-76
2022/05/20 12:10:18;;;;;;;2.53;2.05;;;;;;;30.90;50.14;96673.69;10337510;28;20601;-77
2022/05/20 12:15:18;;;;;;;8.05;2.15;;;;;;;31.38;52.19;96729.72;10337137;28;20249;-77
2022/05/20 12:25:42;;;;;;;4.57;1.30;;;;;;;32.32;48.49;96664.94;10336625;28;20232;-75
2022/05/20 12:30:45;;;;;;;6.10;1.77;;;;;;;32.77;46.93;96648.91;10319172;28;20658;-75
2022/05/20 12:36:14;;;;;;;2.85;1.67;;;;;;;33.75;45.07;96627.84;10319178;28;20197;-76
2022/05/20 12:41:20;;;;;;;3.45;2.13;;;;;;;32.53;48.28;96657.25;10335628;28;20202;-76
2022/05/20 12:46:35;;;;;;;2.95;1.90;;;;;;;32.55;44.95;96587.22;10335823;28;20690;-76
2022/05/20 12:51:45;;;;;;;1.67;1.50;;;;;;;33.24;44.92;96602.66;10318748;28;20192;-76
2022/05/20 12:56:46;;;;;;;6.20;1.75;;;;;;;33.59;45.56;96617.31;10335571;28;20256;-77
2022/05/20 13:01:56;;;;;;;2.35;1.90;;;;;;;33.19;46.00;96611.72;10335346;28;20268;-77
2022/05/20 13:06:58;;;;;;;2.72;2.03;;;;;;;34.86;41.82;96561.00;10335586;28;20317;-77
2022/05/20 13:12:08;;;;;;;3.65;1.70;;;;;;;34.00;43.85;96573.94;10317686;28;20190;-77
2022/05/20 13:17:08;;;;;;;4.15;1.92;;;;;;;33.39;44.45;96567.00;10335217;28;20188;-76
2022/05/20 13:22:10;;;;;;;3.65;1.70;;;;;;;32.78;45.90;96573.78;10334447;28;20190;-77
2022/05/20 13:27:13;;;;;;;4.10;2.22;;;;;;;31.39;46.39;96530.97;10317246;28;20265;-76
2022/05/20 13:32:36;;;;;;;4.78;2.10;;;;;;;33.15;44.08;96544.72;10333646;28;20529;-77
2022/05/20 13:37:40;;;;;;;8.73;2.40;;;;;;;32.14;44.25;96501.28;10334242;28;20186;-75
2022/05/20 13:42:45;;;;;;;5.10;2.20;;;;;;;31.89;45.03;96513.38;10333665;28;20276;-76
2022/05/20 13:53:05;;;;;;;6.13;2.10;;;;;;;32.53;44.16;96505.38;10317840;28;20220;-76
2022/05/20 13:58:05;;;;;;;5.13;1.80;;;;;;;32.19;45.86;96528.25;10315907;28;20238;-77
2022/05/20 14:03:28;;;;;;;3.28;1.90;;;;;;;31.70;46.20;96521.56;10316089;28;20630;-77
2022/05/20 14:08:31;;;;;;;4.78;2.17;;;;;;;30.51;50.96;96585.47;10315878;28;20190;-76
2022/05/20 14:13:36;;;;;;;5.78;2.10;;;;;;;30.64;51.12;96573.13;10333096;28;20218;-77
2022/05/20 14:18:42;;;;;;;6.78;1.80;;;;;;;30.61;50.48;96538.56;10315553;28;20293;-76
2022/05/20 14:24:07;;;;;;;6.68;2.20;;;;;;;31.00;49.68;96517.78;10315248;28;20218;-76
2022/05/20 14:29:21;;;;;;;2.38;1.77;;;;;;;33.80;43.56;96442.13;10301051;28;20675;-76
2022/05/20 14:34:31;;;;;;;2.60;1.83;;;;;;;36.78;38.19;96386.72;10332405;28;20650;-77
2022/05/20 14:39:31;;;;;;;1.65;1.50;;;;;;;36.62;36.33;96301.13;10314855;28;20740;-77
2022/05/20 14:44:32;;;;;;;5.68;2.00;;;;;;;37.67;35.57;96316.34;10331958;28;20304;-77
2022/05/20 14:49:36;;;;;;;1.70;1.55;;;;;;;38.17;34.28;96281.53;10332067;28;20196;-77
2022/05/20 14:54:39;;;;;;;3.60;1.98;;;;;;;39.80;32.37;96278.28;10314455;28;20244;-77
2022/05/20 14:59:39;;;;;;;4.05;2.00;;;;;;;39.78;32.83;96287.63;10314552;28;20649;-76
2022/05/20 15:04:40;;;;;;;4.43;1.73;;;;;;;39.02;34.38;96296.00;10314446;28;20257;-77
2022/05/20 15:09:40;;;;;;;4.30;1.93;;;;;;;37.77;36.75;96307.69;10332158;28;20197;-76
2022/05/20 15:14:41;;;;;;;4.57;2.23;;;;;;;37.62;36.07;96295.50;10331282;28;20193;-76
2022/05/20 15:19:41;;;;;;;3.00;1.80;;;;;;;37.83;34.91;96254.38;10331148;28;20272;-77
2022/05/20 15:24:44;;;;;;;5.60;1.70;;;;;;;38.10;36.23;96284.03;10330843;28;20476;-77
2022/05/20 15:29:45;;;;;;;4.00;1.67;;;;;;;38.01;34.80;96240.41;10313450;28;20749;-77
2022/05/20 15:34:55;;;;;;;2.13;1.87;;;;;;;38.36;35.12;96240.66;10330490;28;20279;-77
2022/05/20 15:40:00;;;;;;;3.47;2.20;;;;;;;36.25;38.14;96209.00;10330796;28;20193;-76
2022/05/20 15:45:01;;;;;;;3.03;1.95;;;;;;;34.48;41.92;96263.13;10312656;28;20300;-77
2022/05/20 15:50:01;;;;;;;2.58;1.98;;;;;;;33.73;42.32;96268.69;10330395;28;20200;-77
2022/05/20 15:55:06;;;;;;;5.63;2.53;;;;;;;32.07;46.18;96301.09;10312389;28;20336;-76
2022/05/20 16:00:09;;;;;;;4.72;2.80;;;;;;;30.72;48.89;96322.88;10329637;28;20554;-77
2022/05/20 16:05:17;;;;;;;6.57;2.17;;;;;;;30.42;49.72;96322.28;10329738;28;20218;-77
2022/05/20 16:10:21;;;;;;;5.40;2.50;;;;;;;30.11;51.04;96338.09;10329304;28;20198;-76
2022/05/20 16:15:21;;;;;;;6.47;2.70;;;;;;;27.66;56.96;96383.78;10353664;28;20335;-76
2022/05/20 16:20:22;;;;;;;5.18;2.38;;;;;;;29.40;53.64;96349.47;10375700;28;20324;-76
2022/05/20 16:25:23;;;;;;;5.78;2.58;;;;;;;28.79;53.07;96313.94;10376477;28;20214;-76
2022/05/20 16:30:25;;;;;;;6.03;2.85;;;;;;;28.06;52.96;96280.50;10381662;28;20728;-75
2022/05/20 16:35:26;;;;;;;4.75;3.10;;;;;;;27.08;56.06;96314.25;10383614;28;20251;-75
2022/05/20 16:40:26;;;;;;;4.97;3.45;;;;;;;25.86;58.91;96333.44;10377190;28;20193;-75
2022/05/20 16:45:27;;;;;;;10.00;3.30;;;;;;;25.80;59.96;96354.13;10376748;28;20622;-75
2022/05/20 16:50:32;;;;;;;7.03;3.25;;;;;;;25.45;61.21;96347.53;10376502;28;20189;-76
2022/05/20 16:55:32;;;;;;;9.77;3.50;;;;;;;25.35;61.47;96333.25;10358879;28;20287;-75
2022/05/20 17:05:51;;;;;;;7.75;3.85;;;;;;;24.90;64.15;96333.50;10376415;28;20279;-76
2022/05/20 17:10:52;;;;;;;7.32;3.58;;;;;;;25.10;64.21;96313.25;10358365;28;20251;-75
2022/05/20 17:15:52;;;;;;;5.70;3.40;;;;;;;24.84;64.49;96301.53;10375782;28;20645;-75
2022/05/20 17:20:53;;;;;;;5.18;3.20;;;;;;;24.75;65.63;96285.16;10375622;28;20705;-75
2022/05/20 17:25:57;;;;;;;5.88;3.70;;;;;;;24.27;67.91;96276.97;10375245;28;20260;-74
2022/05/20 17:30:58;;;;;;;7.22;3.53;;;;;;;24.32;67.93;96263.66;10375714;28;20646;-75
2022/05/20 17:35:59;;;;;;;5.25;3.50;;;;;;;24.27;68.34;96254.78;10375138;28;20186;-75
2022/05/20 17:41:00;;;;;;;5.15;3.50;;;;;;;23.99;70.38;96260.16;10375356;28;20224;-75
2022/05/20 17:46:00;;;;;;;4.57;3.75;;;;;;;23.93;71.27;96265.72;10374320;28;20233;-75
2022/05/20 17:51:00;;;;;;;5.60;3.53;;;;;;;24.27;70.98;96249.41;10375261;28;20201;-75
2022/05/20 17:56:01;;;;;;;5.05;3.42;;;;;;;24.30;73.00;96256.94;10350833;28;20241;-75
2022/05/20 18:01:01;;;;;;;4.55;3.58;;;;;;;23.84;83.27;96284.03;10348652;28;20204;-76
2022/05/20 18:06:01;;;;;;;9.55;3.92;;;;;;;23.07;90.40;96227.81;10346021;28;20221;-74
2022/05/20 18:11:02;;;;;;;10.00;4.47;;;;;;;20.99;100.00;96181.16;10334449;28;20206;-76
2022/05/20 18:16:03;;;;;;;9.05;4.80;;;;;;;20.01;100.00;96156.13;10315833;28;20189;-77
2022/05/20 18:21:04;;;;;;;8.82;5.22;;;;;;;19.49;100.00;96175.28;10342083;28;20216;-78
2022/05/20 18:26:04;;;;;;;8.57;4.90;;;;;;;19.52;100.00;96188.94;10353164;28;20719;-76
2022/05/20 18:31:05;;;;;;;7.70;5.32;;;;;;;19.47;100.00;96188.81;10371209;28;20239;-76
2022/05/20 18:41:24;;;;;;;9.18;5.80;;;;;;;19.15;100.00;96182.91;10372427;28;20235;-75
2022/05/20 18:46:25;;;;;;;9.23;5.28;;;;;;;18.85;100.00;96165.91;10371968;28;20214;-75
2022/05/20 18:51:25;;;;;;;15.20;6.80;;;;;;;18.65;100.00;96160.81;10372103;28;20203;-74
2022/05/20 18:56:25;;;;;;;11.05;6.38;;;;;;;18.60;100.00;96139.41;10371448;28;20264;-75
2022/05/20 19:01:26;;;;;;;10.32;6.30;;;;;;;18.75;100.00;96144.34;10371460;28;20200;-74
2022/05/20 19:06:26;;;;;;;13.43;7.30;;;;;;;18.66;100.00;96149.13;10359660;28;20256;-75
2022/05/20 19:11:26;;;;;;;11.20;6.15;;;;;;;18.63;100.00;96162.84;10341753;28;20662;-75
2022/05/20 19:16:27;;;;;;;8.93;6.00;;;;;;;18.62;100.00;96163.06;10333630;28;20208;-75
2022/05/20 19:21:27;;;;;;;8.32;5.72;;;;;;;18.53;100.00;96147.47;10362251;28;20201;-75
2022/05/20 19:26:28;;;;;;;16.65;6.13;;;;;;;18.44;100.00;96164.69;10370380;28;20908;-74
2022/05/20 19:31:28;;;;;;;8.63;5.50;;;;;;;18.37;100.00;96169.25;10370738;28;20189;-73
2022/05/20 19:36:28;;;;;;;11.73;5.50;;;;;;;18.38;100.00;96183.31;10370687;28;20201;-74
2022/05/20 19:41:29;;;;;;;12.80;6.07;;;;;;;18.29;100.00;96185.44;10370922;28;20228;-74
2022/05/20 19:46:29;;;;;;;9.38;5.30;;;;;;;18.35;100.00;96187.22;10369911;28;20220;-75
2022/05/20 19:51:30;;;;;;;7.70;4.50;;;;;;;18.41;100.00;96178.38;10377589;28;20743;-75
2022/05/20 19:56:30;;;;;;;8.57;4.82;;;;;;;18.36;100.00;96147.22;10377993;28;20245;-74
2022/05/20 20:01:31;;;;;;;9.60;4.70;;;;;;;18.45;100.00;96155.72;10378233;28;20615;-74
2022/05/20 20:06:31;;;;;;;7.78;3.72;;;;;;;18.63;100.00;96167.34;10377992;28;20225;-74
2022/05/20 20:11:32;;;;;;;6.75;3.90;;;;;;;19.16;100.00;96166.75;10377998;28;20193;-75
2022/05/20 20:16:34;;;;;;;7.00;3.83;;;;;;;19.92;100.00;96153.81;10378064;28;20666;-75
2022/05/20 20:26:53;;;;;;;6.97;3.50;;;;;;;20.55;92.33;96132.88;10395741;28;20217;-75
2022/05/20 20:31:54;;;;;;;19.08;3.78;;;;;;;20.81;86.89;96125.41;10383741;28;20733;-75
2022/05/20 20:36:54;;;;;;;4.82;3.33;;;;;;;20.99;83.73;96141.22;10377241;28;20181;-75
2022/05/20 20:41:55;;;;;;;3.88;2.63;;;;;;;20.58;91.28;96256.66;10376624;28;20252;-75
2022/05/20 20:46:55;;;;;;;3.38;2.20;;;;;;;19.93;90.54;96259.09;10376184;28;20217;-75
2022/05/20 20:51:55;;;;;;;2.05;1.83;;;;;;;19.28;92.49;96243.00;10376752;28;20201;-76
2022/05/20 20:56:56;;;;;;;1.73;1.63;;;;;;;18.92;100.00;96257.91;10375886;28;20247;-75
2022/05/20 21:01:57;;;;;;;3.88;1.77;;;;;;;18.78;100.00;96242.09;10375810;28;20193;-76
2022/05/20 21:06:57;;;;;;;5.22;1.90;;;;;;;18.61;100.00;96230.44;10375653;28;20308;-75
2022/05/20 21:17:17;;;;;;;3.35;2.00;;;;;;;18.17;100.00;96233.88;10375612;28;20184;-76
2022/05/20 21:22:21;;;;;;;4.28;1.92;;;;;;;18.06;100.00;96236.44;10375402;28;20203;-75
2022/05/20 21:27:23;;;;;;;3.42;2.25;;;;;;;18.00;100.00;96230.94;10374920;28;20627;-76
2022/05/20 21:32:23;;;;;;;3.63;2.45;;;;;;;18.03;100.00;96237.66;10375030;28;20197;-75
2022/05/20 21:37:24;;;;;;;9.23;3.00;;;;;;;17.74;100.00;96223.97;10374597;28;20189;-75
2022/05/20 21:42:24;;;;;;;3.15;2.10;;;;;;;17.76;100.00;96237.78;10374819;28;20277;-75
2022/05/20 21:47:25;;;;;;;6.05;2.47;;;;;;;17.81;100.00;96239.84;10373838;28;20221;-75
2022/05/20 21:52:25;;;;;;;3.92;2.30;;;;;;;18.00;100.00;96260.09;10374388;28;20193;-76
2022/05/20 21:57:25;;;;;;;8.10;2.13;;;;;;;18.03;100.00;96280.06;10373647;28;20331;-76
2022/05/20 22:13:03;;;;;;;7.55;3.03;;;;;;;17.31;100.00;96303.25;10372483;28;20193;-76
2022/05/20 22:18:04;;;;;;;4.40;2.95;;;;;;;17.00;100.00;96297.63;10355542;28;20194;-75
2022/05/20 22:23:04;;;;;;;7.30;2.58;;;;;;;16.78;100.00;96312.88;10372657;28;20189;-75
2022/05/20 22:28:04;;;;;;;6.40;2.72;;;;;;;16.77;100.00;96314.72;10372576;28;20668;-75
2022/05/20 22:33:05;;;;;;;6.18;2.88;;;;;;;16.77;100.00;96322.66;10372464;28;20200;-75
2022/05/20 22:38:05;;;;;;;5.30;3.05;;;;;;;16.83;100.00;96306.97;10354840;28;20220;-75
2022/05/20 22:43:06;;;;;;;8.30;3.40;;;;;;;16.76;100.00;96313.06;10372222;28;20553;-76
2022/05/20 22:48:09;;;;;;;4.50;3.88;;;;;;;16.70;100.00;96335.06;10372013;28;20233;-75
2022/05/20 22:53:10;;;;;;;7.18;4.00;;;;;;;16.68;100.00;96329.16;10371798;28;20753;-75
2022/05/20 22:58:10;;;;;;;6.75;3.45;;;;;;;16.65;100.00;96324.28;10371542;28;20228;-75
2022/05/20 23:03:11;;;;;;;5.13;4.05;;;;;;;16.58;100.00;96315.53;10372037;28;20194;-76
2022/05/20 23:08:12;;;;;;;6.32;4.10;;;;;;;16.54;100.00;96335.50;10371674;28;20559;-75
2022/05/20 23:13:12;;;;;;;11.85;5.00;;;;;;;16.56;100.00;96336.91;10354001;28;20197;-75
2022/05/20 23:18:14;;;;;;;6.97;4.00;;;;;;;16.61;100.00;96338.13;10371304;28;20292;-75
2022/05/20 23:23:20;;;;;;;6.45;3.60;;;;;;;16.66;100.00;96339.16;10353808;28;20199;-75
2022/05/20 23:28:21;;;;;;;5.20;3.05;;;;;;;16.70;100.00;96350.13;10337604;28;20207;-76
2022/05/20 23:33:21;;;;;;;5.50;3.50;;;;;;;16.63;100.00;96360.72;10371024;28;20189;-75
2022/05/20 23:38:21;;;;;;;5.55;3.55;;;;;;;16.56;100.00;96365.19;10371163;28;20592;-76
2022/05/20 23:43:22;;;;;;;4.50;3.63;;;;;;;16.48;100.00;96346.88;10370404;28;20547;-75
2022/05/20 23:48:23;;;;;;;3.67;3.03;;;;;;;16.44;100.00;96356.22;10370703;28;20197;-75
2022/05/20 23:53:23;;;;;;;6.78;3.50;;;;;;;16.48;100.00;96360.09;10370447;28;20209;-75
2022/05/20 23:58:23;;;;;;;6.32;3.53;;;;;;;16.52;100.00;96356.03;10370503;28;20200;-75
